sensor_id;sensor_type;location;lat;lon;timestamp;pressure;altitude;pressure_sealevel;temperature;humidity
66801;BME280;53703;50.326;19.122;2024-03-02T00:01:00;98041.49;;;20.06;52.89
66801;BME280;53703;50.326;19.122;2024-03-02T00:03:50;98041.61;;;20.03;52.83
66801;BME280;53703;50.326;19.122;2024-03-02T00:06:24;98044.94;;;20.03;52.96
66801;BME280;53703;50.326;19.122;2024-03-02T00:09:01;98042.32;;;20.02;52.67
66801;BME280;53703;50.326;19.122;2024-03-02T00:11:37;98040.80;;;20.01;52.82
66801;BME280;53703;50.326;19.122;2024-03-02T00:14:11;98044.54;;;20.02;52.79
66801;BME280;53703;50.326;19.122;2024-03-02T00:16:45;98045.32;;;20.02;52.55
66801;BME280;53703;50.326;19.122;2024-03-02T00:19:18;98050.38;;;20.07;52.53
66801;BME280;53703;50.326;19.122;2024-03-02T00:21:52;98056.76;;;20.06;52.53
66801;BME280;53703;50.326;19.122;2024-03-02T00:24:33;98058.66;;;20.06;52.66
66801;BME280;53703;50.326;19.122;2024-03-02T00:27:08;98062.73;;;20.01;52.51
66801;BME280;53703;50.326;19.122;2024-03-02T00:29:45;98058.46;;;20.17;52.07
66801;BME280;53703;50.326;19.122;2024-03-02T00:32:19;98051.90;;;20.25;51.73
66801;BME280;53703;50.326;19.122;2024-03-02T00:34:52;98058.52;;;20.08;52.38
66801;BME280;53703;50.326;19.122;2024-03-02T00:37:26;98057.10;;;20.07;52.58
66801;BME280;53703;50.326;19.122;2024-03-02T00:40:00;98060.26;;;20.06;52.42
66801;BME280;53703;50.326;19.122;2024-03-02T00:42:36;98059.80;;;20.08;52.41
66801;BME280;53703;50.326;19.122;2024-03-02T00:45:11;98053.67;;;20.19;52.89
66801;BME280;53703;50.326;19.122;2024-03-02T00:47:45;98059.00;;;20.22;52.78
66801;BME280;53703;50.326;19.122;2024-03-02T00:50:18;98056.50;;;20.25;52.70
66801;BME280;53703;50.326;19.122;2024-03-02T00:53:02;98053.93;;;20.36;51.57
66801;BME280;53703;50.326;19.122;2024-03-02T00:55:38;98053.14;;;20.45;51.71
66801;BME280;53703;50.326;19.122;2024-03-02T00:58:16;98051.48;;;20.31;53.13
66801;BME280;53703;50.326;19.122;2024-03-02T01:00:50;98048.58;;;20.17;54.41
66801;BME280;53703;50.326;19.122;2024-03-02T01:03:23;98046.20;;;20.32;52.96
66801;BME280;53703;50.326;19.122;2024-03-02T01:05:57;98048.29;;;20.27;52.97
66801;BME280;53703;50.326;19.122;2024-03-02T01:08:30;98053.36;;;20.12;54.56
66801;BME280;53703;50.326;19.122;2024-03-02T01:11:04;98049.38;;;20.10;54.77
66801;BME280;53703;50.326;19.122;2024-03-02T01:13:38;98047.45;;;20.09;54.26
66801;BME280;53703;50.326;19.122;2024-03-02T01:16:11;98041.70;;;20.11;54.38
66801;BME280;53703;50.326;19.122;2024-03-02T01:18:45;98033.88;;;20.05;54.12
66801;BME280;53703;50.326;19.122;2024-03-02T01:21:19;98031.22;;;20.06;53.79
66801;BME280;53703;50.326;19.122;2024-03-02T01:23:52;98034.60;;;20.06;53.89
66801;BME280;53703;50.326;19.122;2024-03-02T01:26:25;98034.46;;;20.08;53.69
66801;BME280;53703;50.326;19.122;2024-03-02T01:28:59;98026.48;;;20.08;53.67
66801;BME280;53703;50.326;19.122;2024-03-02T01:31:32;98023.86;;;20.08;53.49
66801;BME280;53703;50.326;19.122;2024-03-02T01:34:06;98023.83;;;20.12;53.51
66801;BME280;53703;50.326;19.122;2024-03-02T01:36:39;98022.60;;;20.09;53.46
66801;BME280;53703;50.326;19.122;2024-03-02T01:39:13;98023.40;;;20.09;53.24
66801;BME280;53703;50.326;19.122;2024-03-02T01:41:46;98020.74;;;20.11;53.35
66801;BME280;53703;50.326;19.122;2024-03-02T01:44:19;98022.15;;;20.10;53.34
66801;BME280;53703;50.326;19.122;2024-03-02T01:46:53;98019.16;;;20.05;52.95
66801;BME280;53703;50.326;19.122;2024-03-02T01:49:26;98018.41;;;20.09;53.08
66801;BME280;53703;50.326;19.122;2024-03-02T01:52:00;98019.54;;;20.10;52.64
66801;BME280;53703;50.326;19.122;2024-03-02T01:54:33;98014.64;;;20.12;52.78
66801;BME280;53703;50.326;19.122;2024-03-02T01:57:07;98011.30;;;20.10;52.71
66801;BME280;53703;50.326;19.122;2024-03-02T01:59:40;98015.20;;;20.10;52.58
66801;BME280;53703;50.326;19.122;2024-03-02T02:02:14;98008.51;;;20.07;52.59
66801;BME280;53703;50.326;19.122;2024-03-02T02:04:48;98007.95;;;20.06;52.58
66801;BME280;53703;50.326;19.122;2024-03-02T02:07:21;98004.57;;;20.09;52.75
66801;BME280;53703;50.326;19.122;2024-03-02T02:09:54;98003.99;;;20.07;52.84
66801;BME280;53703;50.326;19.122;2024-03-02T02:12:28;98003.20;;;20.07;52.81
66801;BME280;53703;50.326;19.122;2024-03-02T02:15:02;97997.18;;;20.06;52.97
66801;BME280;53703;50.326;19.122;2024-03-02T02:17:36;97993.67;;;20.04;52.76
66801;BME280;53703;50.326;19.122;2024-03-02T02:20:11;97993.73;;;20.02;52.85
66801;BME280;53703;50.326;19.122;2024-03-02T02:22:55;97994.15;;;20.04;52.71
66801;BME280;53703;50.326;19.122;2024-03-02T02:25:29;97989.30;;;20.03;52.88
66801;BME280;53703;50.326;19.122;2024-03-02T02:28:03;97987.25;;;20.03;52.70
66801;BME280;53703;50.326;19.122;2024-03-02T02:30:37;97990.28;;;20.04;52.62
66801;BME280;53703;50.326;19.122;2024-03-02T02:33:10;97992.58;;;20.12;52.52
66801;BME280;53703;50.326;19.122;2024-03-02T02:35:44;97992.48;;;20.03;52.78
66801;BME280;53703;50.326;19.122;2024-03-02T02:38:17;97988.20;;;20.03;52.59
66801;BME280;53703;50.326;19.122;2024-03-02T02:40:52;97987.48;;;20.01;52.68
66801;BME280;53703;50.326;19.122;2024-03-02T02:43:25;97984.66;;;19.99;52.74
66801;BME280;53703;50.326;19.122;2024-03-02T02:45:58;97985.64;;;20.06;52.55
66801;BME280;53703;50.326;19.122;2024-03-02T02:48:32;97988.45;;;20.11;52.37
66801;BME280;53703;50.326;19.122;2024-03-02T02:51:06;97991.89;;;20.08;52.29
66801;BME280;53703;50.326;19.122;2024-03-02T02:53:39;97994.23;;;20.12;52.29
66801;BME280;53703;50.326;19.122;2024-03-02T02:56:13;97991.69;;;20.11;52.30
66801;BME280;53703;50.326;19.122;2024-03-02T02:58:47;97991.99;;;20.09;52.51
66801;BME280;53703;50.326;19.122;2024-03-02T03:01:20;97998.03;;;20.12;52.40
66801;BME280;53703;50.326;19.122;2024-03-02T03:03:54;97992.77;;;20.08;52.29
66801;BME280;53703;50.326;19.122;2024-03-02T03:06:27;97991.27;;;20.16;52.23
66801;BME280;53703;50.326;19.122;2024-03-02T03:09:01;97989.27;;;20.31;51.50
66801;BME280;53703;50.326;19.122;2024-03-02T03:11:34;97985.52;;;20.19;52.04
66801;BME280;53703;50.326;19.122;2024-03-02T03:14:08;97986.52;;;20.09;52.29
66801;BME280;53703;50.326;19.122;2024-03-02T03:16:42;97989.79;;;20.27;51.96
66801;BME280;53703;50.326;19.122;2024-03-02T03:19:15;97992.23;;;20.18;51.97
66801;BME280;53703;50.326;19.122;2024-03-02T03:21:48;97988.92;;;20.20;52.07
66801;BME280;53703;50.326;19.122;2024-03-02T03:24:22;97984.58;;;20.20;51.95
66801;BME280;53703;50.326;19.122;2024-03-02T03:26:55;97984.15;;;20.33;51.48
66801;BME280;53703;50.326;19.122;2024-03-02T03:29:29;97981.81;;;20.37;51.50
66801;BME280;53703;50.326;19.122;2024-03-02T03:32:02;97984.80;;;20.19;51.96
66801;BME280;53703;50.326;19.122;2024-03-02T03:34:37;97982.00;;;20.32;51.60
66801;BME280;53703;50.326;19.122;2024-03-02T03:37:10;97983.77;;;20.34;51.39
66801;BME280;53703;50.326;19.122;2024-03-02T03:39:44;97984.67;;;20.31;51.37
66801;BME280;53703;50.326;19.122;2024-03-02T03:42:17;97991.42;;;20.41;51.17
66801;BME280;53703;50.326;19.122;2024-03-02T03:44:51;97994.27;;;20.10;52.01
66801;BME280;53703;50.326;19.122;2024-03-02T03:47:24;97995.55;;;20.02;52.18
66801;BME280;53703;50.326;19.122;2024-03-02T03:49:58;97999.20;;;20.25;51.58
66801;BME280;53703;50.326;19.122;2024-03-02T03:52:31;97997.41;;;20.30;51.52
66801;BME280;53703;50.326;19.122;2024-03-02T03:55:05;97997.79;;;20.27;51.32
66801;BME280;53703;50.326;19.122;2024-03-02T03:57:39;97996.78;;;20.39;50.97
66801;BME280;53703;50.326;19.122;2024-03-02T04:00:14;97991.73;;;20.38;50.97
66801;BME280;53703;50.326;19.122;2024-03-02T04:02:48;97989.16;;;20.54;50.54
66801;BME280;53703;50.326;19.122;2024-03-02T04:05:21;97986.13;;;20.52;50.58
66801;BME280;53703;50.326;19.122;2024-03-02T04:07:55;97979.02;;;20.46;50.65
66801;BME280;53703;50.326;19.122;2024-03-02T04:10:28;97981.41;;;20.56;50.35
66801;BME280;53703;50.326;19.122;2024-03-02T04:13:02;97972.73;;;20.41;50.77
66801;BME280;53703;50.326;19.122;2024-03-02T04:15:36;97970.59;;;20.31;51.01
66801;BME280;53703;50.326;19.122;2024-03-02T04:18:09;97974.13;;;20.38;50.81
66801;BME280;53703;50.326;19.122;2024-03-02T04:20:43;97979.80;;;20.25;51.23
66801;BME280;53703;50.326;19.122;2024-03-02T04:23:17;97982.32;;;20.41;50.86
66801;BME280;53703;50.326;19.122;2024-03-02T04:25:50;97991.98;;;20.25;51.24
66801;BME280;53703;50.326;19.122;2024-03-02T04:28:24;97993.11;;;20.19;51.30
66801;BME280;53703;50.326;19.122;2024-03-02T04:30:57;97990.82;;;20.12;51.57
66801;BME280;53703;50.326;19.122;2024-03-02T04:33:31;97992.27;;;20.31;51.12
66801;BME280;53703;50.326;19.122;2024-03-02T04:36:05;97994.59;;;20.24;51.13
66801;BME280;53703;50.326;19.122;2024-03-02T04:38:41;97998.27;;;20.12;51.62
66801;BME280;53703;50.326;19.122;2024-03-02T04:41:15;98000.52;;;20.22;51.32
66801;BME280;53703;50.326;19.122;2024-03-02T04:43:48;97996.11;;;20.09;51.72
66801;BME280;53703;50.326;19.122;2024-03-02T04:46:21;97998.38;;;20.15;51.70
66801;BME280;53703;50.326;19.122;2024-03-02T04:48:55;97995.41;;;20.03;52.03
66801;BME280;53703;50.326;19.122;2024-03-02T04:51:29;97999.66;;;20.25;51.28
66801;BME280;53703;50.326;19.122;2024-03-02T04:54:03;97995.29;;;20.15;51.67
66801;BME280;53703;50.326;19.122;2024-03-02T04:56:36;97994.27;;;20.32;51.08
66801;BME280;53703;50.326;19.122;2024-03-02T04:59:17;97994.46;;;20.11;51.58
66801;BME280;53703;50.326;19.122;2024-03-02T05:01:51;97995.99;;;20.14;51.44
66801;BME280;53703;50.326;19.122;2024-03-02T05:04:24;97995.14;;;20.15;51.64
66801;BME280;53703;50.326;19.122;2024-03-02T05:06:58;97997.09;;;20.20;51.51
66801;BME280;53703;50.326;19.122;2024-03-02T05:09:31;97997.89;;;20.06;51.82
66801;BME280;53703;50.326;19.122;2024-03-02T05:12:05;97998.92;;;20.06;51.89
66801;BME280;53703;50.326;19.122;2024-03-02T05:15:01;98003.84;;;20.22;51.22
66801;BME280;53703;50.326;19.122;2024-03-02T05:17:35;98003.93;;;20.49;50.62
66801;BME280;53703;50.326;19.122;2024-03-02T05:20:11;98009.95;;;20.42;50.76
66801;BME280;53703;50.326;19.122;2024-03-02T05:22:44;98010.45;;;20.43;50.49
66801;BME280;53703;50.326;19.122;2024-03-02T05:25:19;98016.03;;;20.47;50.53
66801;BME280;53703;50.326;19.122;2024-03-02T05:27:52;98014.02;;;20.44;50.72
66801;BME280;53703;50.326;19.122;2024-03-02T05:30:26;98014.77;;;20.47;50.49
66801;BME280;53703;50.326;19.122;2024-03-02T05:32:59;98015.77;;;20.44;50.56
66801;BME280;53703;50.326;19.122;2024-03-02T05:35:33;98017.67;;;20.46;50.51
66801;BME280;53703;50.326;19.122;2024-03-02T05:38:06;98014.56;;;20.42;50.58
66801;BME280;53703;50.326;19.122;2024-03-02T05:40:41;98019.81;;;20.47;50.25
66801;BME280;53703;50.326;19.122;2024-03-02T05:43:14;98023.46;;;20.48;50.16
66801;BME280;53703;50.326;19.122;2024-03-02T05:45:47;98023.77;;;20.45;50.39
66801;BME280;53703;50.326;19.122;2024-03-02T05:48:21;98023.31;;;20.47;50.24
66801;BME280;53703;50.326;19.122;2024-03-02T05:50:55;98028.98;;;20.44;50.25
66801;BME280;53703;50.326;19.122;2024-03-02T05:53:28;98033.94;;;20.41;50.32
66801;BME280;53703;50.326;19.122;2024-03-02T05:56:02;98035.88;;;20.44;50.40
66801;BME280;53703;50.326;19.122;2024-03-02T05:58:36;98036.94;;;20.39;50.26
66801;BME280;53703;50.326;19.122;2024-03-02T06:01:25;98040.24;;;20.45;50.31
66801;BME280;53703;50.326;19.122;2024-03-02T06:04:01;98037.58;;;20.41;50.41
66801;BME280;53703;50.326;19.122;2024-03-02T06:06:34;98036.67;;;20.36;50.24
66801;BME280;53703;50.326;19.122;2024-03-02T06:09:08;98038.29;;;20.40;50.42
66801;BME280;53703;50.326;19.122;2024-03-02T06:11:44;98047.30;;;20.38;50.58
66801;BME280;53703;50.326;19.122;2024-03-02T06:14:18;98047.95;;;20.41;50.53
66801;BME280;53703;50.326;19.122;2024-03-02T06:16:51;98049.95;;;20.41;50.24
66801;BME280;53703;50.326;19.122;2024-03-02T06:19:24;98046.80;;;20.36;50.39
66801;BME280;53703;50.326;19.122;2024-03-02T06:21:58;98043.33;;;20.38;50.49
66801;BME280;53703;50.326;19.122;2024-03-02T06:24:32;98045.20;;;20.35;50.41
66801;BME280;53703;50.326;19.122;2024-03-02T06:27:05;98047.15;;;20.32;50.76
66801;BME280;53703;50.326;19.122;2024-03-02T06:29:39;98045.75;;;20.34;50.59
66801;BME280;53703;50.326;19.122;2024-03-02T06:32:12;98054.16;;;20.36;50.42
66801;BME280;53703;50.326;19.122;2024-03-02T06:34:46;98055.16;;;20.33;50.37
66801;BME280;53703;50.326;19.122;2024-03-02T06:37:19;98056.56;;;20.38;50.25
66801;BME280;53703;50.326;19.122;2024-03-02T06:39:52;98057.39;;;20.34;50.30
66801;BME280;53703;50.326;19.122;2024-03-02T06:42:26;98050.88;;;20.32;50.49
66801;BME280;53703;50.326;19.122;2024-03-02T06:44:59;98043.67;;;20.32;50.26
66801;BME280;53703;50.326;19.122;2024-03-02T06:47:32;98043.54;;;20.35;50.21
66801;BME280;53703;50.326;19.122;2024-03-02T06:50:07;98044.68;;;20.37;50.15
66801;BME280;53703;50.326;19.122;2024-03-02T06:52:41;98048.54;;;20.29;50.11
66801;BME280;53703;50.326;19.122;2024-03-02T06:55:15;98050.02;;;20.33;50.21
66801;BME280;53703;50.326;19.122;2024-03-02T06:57:49;98055.03;;;20.28;50.26
66801;BME280;53703;50.326;19.122;2024-03-02T07:00:23;98050.25;;;20.25;50.34
66801;BME280;53703;50.326;19.122;2024-03-02T07:02:56;98045.04;;;20.27;50.27
66801;BME280;53703;50.326;19.122;2024-03-02T07:05:30;98043.95;;;20.28;50.15
66801;BME280;53703;50.326;19.122;2024-03-02T07:08:04;98050.14;;;20.30;50.05
66801;BME280;53703;50.326;19.122;2024-03-02T07:10:38;98052.11;;;20.29;50.00
66801;BME280;53703;50.326;19.122;2024-03-02T07:13:11;98054.88;;;20.29;49.95
66801;BME280;53703;50.326;19.122;2024-03-02T07:15:45;98055.56;;;20.27;50.01
66801;BME280;53703;50.326;19.122;2024-03-02T07:18:38;98057.81;;;20.30;50.03
66801;BME280;53703;50.326;19.122;2024-03-02T07:21:14;98058.15;;;20.31;49.92
66801;BME280;53703;50.326;19.122;2024-03-02T07:23:47;98060.23;;;20.25;50.07
66801;BME280;53703;50.326;19.122;2024-03-02T07:26:21;98059.81;;;20.25;50.23
66801;BME280;53703;50.326;19.122;2024-03-02T07:28:58;98055.61;;;20.24;50.14
66801;BME280;53703;50.326;19.122;2024-03-02T07:31:31;98055.70;;;20.25;50.25
66801;BME280;53703;50.326;19.122;2024-03-02T07:34:05;98056.81;;;20.25;50.16
66801;BME280;53703;50.326;19.122;2024-03-02T07:36:38;98061.55;;;20.24;50.25
66801;BME280;53703;50.326;19.122;2024-03-02T07:39:12;98065.23;;;20.28;50.18
66801;BME280;53703;50.326;19.122;2024-03-02T07:41:46;98074.48;;;20.26;50.02
66801;BME280;53703;50.326;19.122;2024-03-02T07:44:20;98078.34;;;20.24;50.25
66801;BME280;53703;50.326;19.122;2024-03-02T07:46:54;98076.37;;;20.25;50.13
66801;BME280;53703;50.326;19.122;2024-03-02T07:49:27;98080.40;;;20.25;50.08
66801;BME280;53703;50.326;19.122;2024-03-02T07:52:01;98083.51;;;20.26;50.03
66801;BME280;53703;50.326;19.122;2024-03-02T07:54:34;98085.71;;;20.25;49.97
66801;BME280;53703;50.326;19.122;2024-03-02T07:57:08;98082.77;;;20.25;50.23
66801;BME280;53703;50.326;19.122;2024-03-02T07:59:43;98079.03;;;20.30;49.89
66801;BME280;53703;50.326;19.122;2024-03-02T08:02:16;98075.46;;;20.29;49.97
66801;BME280;53703;50.326;19.122;2024-03-02T08:04:50;98083.67;;;20.27;49.92
66801;BME280;53703;50.326;19.122;2024-03-02T08:07:24;98085.95;;;20.26;50.60
66801;BME280;53703;50.326;19.122;2024-03-02T08:09:57;98090.25;;;20.28;50.28
66801;BME280;53703;50.326;19.122;2024-03-02T08:12:31;98098.75;;;19.68;48.32
66801;BME280;53703;50.326;19.122;2024-03-02T08:15:05;98100.88;;;19.73;49.37
66801;BME280;53703;50.326;19.122;2024-03-02T08:17:39;98096.97;;;20.00;50.47
66801;BME280;53703;50.326;19.122;2024-03-02T08:20:17;98092.94;;;20.07;49.46
66801;BME280;53703;50.326;19.122;2024-03-02T08:22:51;98095.77;;;20.12;49.63
66801;BME280;53703;50.326;19.122;2024-03-02T08:25:27;98094.85;;;20.21;49.97
66801;BME280;53703;50.326;19.122;2024-03-02T08:28:00;98099.38;;;20.22;50.44
66801;BME280;53703;50.326;19.122;2024-03-02T08:30:34;98100.27;;;20.25;50.39
66801;BME280;53703;50.326;19.122;2024-03-02T08:33:08;98106.39;;;20.19;50.44
66801;BME280;53703;50.326;19.122;2024-03-02T08:35:41;98109.86;;;20.19;51.56
66801;BME280;53703;50.326;19.122;2024-03-02T08:38:14;98107.71;;;20.18;51.92
66801;BME280;53703;50.326;19.122;2024-03-02T08:40:48;98107.00;;;20.24;50.94
66801;BME280;53703;50.326;19.122;2024-03-02T08:43:22;98107.76;;;20.21;51.32
66801;BME280;53703;50.326;19.122;2024-03-02T08:45:56;98106.41;;;20.29;51.32
66801;BME280;53703;50.326;19.122;2024-03-02T08:48:29;98103.99;;;20.39;50.77
66801;BME280;53703;50.326;19.122;2024-03-02T08:51:03;98101.88;;;20.27;51.52
66801;BME280;53703;50.326;19.122;2024-03-02T08:53:39;98099.21;;;20.16;51.50
66801;BME280;53703;50.326;19.122;2024-03-02T08:56:13;98100.05;;;20.19;51.42
66801;BME280;53703;50.326;19.122;2024-03-02T08:58:48;98105.83;;;20.26;51.18
66801;BME280;53703;50.326;19.122;2024-03-02T09:01:21;98107.64;;;20.25;50.99
66801;BME280;53703;50.326;19.122;2024-03-02T09:03:55;98110.17;;;20.18;51.16
66801;BME280;53703;50.326;19.122;2024-03-02T09:06:28;98111.44;;;20.20;50.93
66801;BME280;53703;50.326;19.122;2024-03-02T09:09:02;98116.06;;;20.20;50.89
66801;BME280;53703;50.326;19.122;2024-03-02T09:11:36;98115.84;;;20.09;51.29
66801;BME280;53703;50.326;19.122;2024-03-02T09:14:10;98116.44;;;20.00;51.37
66801;BME280;53703;50.326;19.122;2024-03-02T09:16:43;98116.20;;;20.13;50.48
66801;BME280;53703;50.326;19.122;2024-03-02T09:19:16;98115.25;;;20.20;49.45
66801;BME280;53703;50.326;19.122;2024-03-02T09:21:50;98113.14;;;20.21;49.86
66801;BME280;53703;50.326;19.122;2024-03-02T09:24:27;98115.73;;;20.14;50.67
66801;BME280;53703;50.326;19.122;2024-03-02T09:27:00;98115.42;;;20.14;51.19
66801;BME280;53703;50.326;19.122;2024-03-02T09:29:34;98114.85;;;20.18;52.33
66801;BME280;53703;50.326;19.122;2024-03-02T09:32:13;98117.49;;;20.16;52.16
66801;BME280;53703;50.326;19.122;2024-03-02T09:34:45;98116.77;;;20.14;52.02
66801;BME280;53703;50.326;19.122;2024-03-02T09:37:20;98118.48;;;20.17;52.28
66801;BME280;53703;50.326;19.122;2024-03-02T09:39:53;98120.91;;;20.29;51.89
66801;BME280;53703;50.326;19.122;2024-03-02T09:42:27;98122.92;;;20.18;51.58
66801;BME280;53703;50.326;19.122;2024-03-02T09:45:01;98125.88;;;20.15;51.72
66801;BME280;53703;50.326;19.122;2024-03-02T09:47:35;98129.44;;;19.96;52.13
66801;BME280;53703;50.326;19.122;2024-03-02T09:50:10;98125.83;;;20.10;51.57
66801;BME280;53703;50.326;19.122;2024-03-02T09:52:44;98132.28;;;20.20;51.44
66801;BME280;53703;50.326;19.122;2024-03-02T09:55:21;98128.48;;;20.08;51.48
66801;BME280;53703;50.326;19.122;2024-03-02T09:57:55;98128.65;;;20.08;50.99
66801;BME280;53703;50.326;19.122;2024-03-02T10:00:28;98125.60;;;20.00;51.78
66801;BME280;53703;50.326;19.122;2024-03-02T10:03:02;98131.56;;;19.84;52.21
66801;BME280;53703;50.326;19.122;2024-03-02T10:05:37;98123.86;;;19.95;51.94
66801;BME280;53703;50.326;19.122;2024-03-02T10:08:10;98126.58;;;20.07;51.43
66801;BME280;53703;50.326;19.122;2024-03-02T10:10:44;98126.23;;;20.10;51.28
66801;BME280;53703;50.326;19.122;2024-03-02T10:13:18;98124.67;;;20.13;50.72
66801;BME280;53703;50.326;19.122;2024-03-02T10:15:51;98124.80;;;19.99;51.17
66801;BME280;53703;50.326;19.122;2024-03-02T10:18:29;98121.95;;;20.11;51.05
66801;BME280;53703;50.326;19.122;2024-03-02T10:21:15;98124.47;;;20.04;51.13
66801;BME280;53703;50.326;19.122;2024-03-02T10:23:49;98125.35;;;19.99;51.33
66801;BME280;53703;50.326;19.122;2024-03-02T10:26:22;98120.02;;;20.08;51.63
66801;BME280;53703;50.326;19.122;2024-03-02T10:28:56;98125.80;;;20.14;51.28
66801;BME280;53703;50.326;19.122;2024-03-02T10:31:32;98127.90;;;20.11;51.30
66801;BME280;53703;50.326;19.122;2024-03-02T10:34:06;98126.59;;;20.15;50.78
66801;BME280;53703;50.326;19.122;2024-03-02T10:36:42;98130.05;;;20.06;50.79
66801;BME280;53703;50.326;19.122;2024-03-02T10:39:18;98130.40;;;20.09;50.94
66801;BME280;53703;50.326;19.122;2024-03-02T10:41:53;98127.84;;;20.13;50.14
66801;BME280;53703;50.326;19.122;2024-03-02T10:44:28;98127.36;;;20.13;50.34
66801;BME280;53703;50.326;19.122;2024-03-02T10:47:05;98127.66;;;20.05;49.93
66801;BME280;53703;50.326;19.122;2024-03-02T10:49:39;98133.26;;;20.03;50.97
66801;BME280;53703;50.326;19.122;2024-03-02T10:52:15;98131.04;;;20.03;51.58
66801;BME280;53703;50.326;19.122;2024-03-02T10:54:49;98132.94;;;20.02;50.99
66801;BME280;53703;50.326;19.122;2024-03-02T10:57:24;98130.90;;;20.05;50.51
66801;BME280;53703;50.326;19.122;2024-03-02T11:00:03;98134.05;;;19.98;51.87
66801;BME280;53703;50.326;19.122;2024-03-02T11:02:40;98131.39;;;20.00;51.36
66801;BME280;53703;50.326;19.122;2024-03-02T11:05:18;98130.38;;;20.00;51.07
66801;BME280;53703;50.326;19.122;2024-03-02T11:08:00;98134.44;;;19.98;51.54
66801;BME280;53703;50.326;19.122;2024-03-02T11:10:41;98136.73;;;19.87;51.63
66801;BME280;53703;50.326;19.122;2024-03-02T11:13:15;98133.33;;;19.92;51.29
66801;BME280;53703;50.326;19.122;2024-03-02T11:15:49;98129.52;;;20.01;51.04
66801;BME280;53703;50.326;19.122;2024-03-02T11:18:25;98127.22;;;19.91;51.19
66801;BME280;53703;50.326;19.122;2024-03-02T11:21:00;98126.60;;;19.92;51.29
66801;BME280;53703;50.326;19.122;2024-03-02T11:23:36;98121.23;;;19.92;51.23
66801;BME280;53703;50.326;19.122;2024-03-02T11:26:22;98118.77;;;19.87;51.30
66801;BME280;53703;50.326;19.122;2024-03-02T11:28:56;98119.71;;;19.85;51.30
66801;BME280;53703;50.326;19.122;2024-03-02T11:32:00;98119.55;;;19.86;51.31
66801;BME280;53703;50.326;19.122;2024-03-02T11:34:35;98114.93;;;19.83;51.35
66801;BME280;53703;50.326;19.122;2024-03-02T11:37:12;98111.67;;;19.82;51.39
66801;BME280;53703;50.326;19.122;2024-03-02T11:39:46;98110.41;;;19.88;51.36
66801;BME280;53703;50.326;19.122;2024-03-02T11:42:20;98105.95;;;19.86;51.55
66801;BME280;53703;50.326;19.122;2024-03-02T11:44:57;98109.10;;;19.91;51.37
66801;BME280;53703;50.326;19.122;2024-03-02T11:47:32;98106.42;;;19.92;50.87
66801;BME280;53703;50.326;19.122;2024-03-02T11:50:10;98103.86;;;20.00;50.08
66801;BME280;53703;50.326;19.122;2024-03-02T11:52:44;98099.85;;;20.03;50.79
66801;BME280;53703;50.326;19.122;2024-03-02T11:55:20;98102.84;;;19.96;51.90
66801;BME280;53703;50.326;19.122;2024-03-02T11:57:54;98100.89;;;19.94;51.80
66801;BME280;53703;50.326;19.122;2024-03-02T12:00:28;98097.88;;;19.93;52.32
66801;BME280;53703;50.326;19.122;2024-03-02T12:03:05;98095.33;;;19.97;51.53
66801;BME280;53703;50.326;19.122;2024-03-02T12:05:40;98094.06;;;20.02;51.40
66801;BME280;53703;50.326;19.122;2024-03-02T12:08:14;98089.02;;;20.04;50.97
66801;BME280;53703;50.326;19.122;2024-03-02T12:10:59;98091.59;;;20.00;51.82
66801;BME280;53703;50.326;19.122;2024-03-02T12:13:34;98086.41;;;20.09;51.09
66801;BME280;53703;50.326;19.122;2024-03-02T12:16:09;98089.94;;;20.01;51.86
66801;BME280;53703;50.326;19.122;2024-03-02T12:18:44;98085.49;;;20.00;53.17
66801;BME280;53703;50.326;19.122;2024-03-02T12:21:17;98083.27;;;20.00;53.37
66801;BME280;53703;50.326;19.122;2024-03-02T12:23:51;98081.96;;;20.02;52.39
66801;BME280;53703;50.326;19.122;2024-03-02T12:26:25;98076.19;;;20.02;52.76
66801;BME280;53703;50.326;19.122;2024-03-02T12:28:58;98079.73;;;20.00;53.32
66801;BME280;53703;50.326;19.122;2024-03-02T12:31:32;98077.19;;;20.13;51.71
66801;BME280;53703;50.326;19.122;2024-03-02T12:34:05;98077.77;;;20.08;52.07
66801;BME280;53703;50.326;19.122;2024-03-02T12:36:41;98080.58;;;20.05;52.24
66801;BME280;53703;50.326;19.122;2024-03-02T12:39:15;98081.57;;;20.09;51.27
66801;BME280;53703;50.326;19.122;2024-03-02T12:41:48;98081.98;;;20.04;52.80
66801;BME280;53703;50.326;19.122;2024-03-02T12:44:23;98080.42;;;20.13;52.56
66801;BME280;53703;50.326;19.122;2024-03-02T12:46:56;98077.70;;;20.09;52.22
66801;BME280;53703;50.326;19.122;2024-03-02T12:49:33;98078.83;;;20.11;54.23
66801;BME280;53703;50.326;19.122;2024-03-02T12:52:09;98077.66;;;20.06;55.15
66801;BME280;53703;50.326;19.122;2024-03-02T12:54:44;98073.23;;;20.06;54.25
66801;BME280;53703;50.326;19.122;2024-03-02T12:57:21;98071.30;;;20.04;54.57
66801;BME280;53703;50.326;19.122;2024-03-02T12:59:59;98075.10;;;20.11;54.17
66801;BME280;53703;50.326;19.122;2024-03-02T13:02:33;98079.60;;;20.16;53.62
66801;BME280;53703;50.326;19.122;2024-03-02T13:05:08;98080.15;;;20.16;53.24
66801;BME280;53703;50.326;19.122;2024-03-02T13:07:43;98078.63;;;20.08;54.58
66801;BME280;53703;50.326;19.122;2024-03-02T13:10:18;98077.21;;;20.08;54.51
66801;BME280;53703;50.326;19.122;2024-03-02T13:12:51;98079.73;;;20.15;52.77
66801;BME280;53703;50.326;19.122;2024-03-02T13:15:25;98075.58;;;20.10;55.05
66801;BME280;53703;50.326;19.122;2024-03-02T13:18:02;98068.47;;;20.05;54.73
66801;BME280;53703;50.326;19.122;2024-03-02T13:20:36;98067.95;;;20.08;55.30
66801;BME280;53703;50.326;19.122;2024-03-02T13:23:11;98069.23;;;20.03;55.74
66801;BME280;53703;50.326;19.122;2024-03-02T13:25:44;98066.56;;;20.05;54.93
66801;BME280;53703;50.326;19.122;2024-03-02T13:28:19;98066.73;;;20.05;54.95